Terminal Aerodrome Forecast
Issued by NWS

Home | Current Version | Previous Version | Text Only | Print | Product List | Glossary On
Versions: 1 2 3 4 5 6 7 8 9 10 11 12 13 14 15 16 17 18 19 20 21 22 23 24 25 26 27 28
000
FTUS43 KPAH 021729
TAFOWB
TAF
KOWB 021729Z 0218/0318 05009KT P6SM SCT250
     FM030200 07005KT P6SM BKN040
     FM030800 13006KT P6SM OVC020
     FM031400 18010KT 5SM -RA BR OVC012=

USA.gov is the U.S. government's official web portal to all federal, state and local government web resources and services.